createdAt,value
2019-02-26T00:01:30.872Z,19.10
2019-02-26T00:04:01.907Z,19.70
2019-02-26T00:06:31.159Z,32.10
2019-02-26T00:09:01.953Z,25.62
2019-02-26T00:11:33.196Z,24.25
2019-02-26T00:14:02.311Z,23.07
2019-02-26T00:16:35.214Z,33.85
2019-02-26T00:19:03.143Z,27.58
2019-02-26T00:21:33.716Z,25.95
2019-02-26T00:24:04.869Z,35.63
2019-02-26T00:26:34.500Z,26.10
2019-02-26T00:29:06.607Z,25.23
2019-02-26T00:31:35.879Z,21.82
2019-02-26T00:34:05.923Z,33.18
2019-02-26T00:36:37.773Z,21.70
2019-02-26T00:39:07.635Z,20.00
2019-02-26T00:41:36.883Z,20.57
2019-02-26T00:44:06.584Z,26.33
2019-02-26T00:46:37.086Z,24.15
2019-02-26T00:49:07.643Z,23.77
2019-02-26T00:51:39.002Z,25.68
2019-02-26T00:54:08.079Z,25.68
2019-02-26T00:56:38.627Z,23.60
2019-02-26T00:59:08.319Z,35.40
2019-02-26T01:01:37.594Z,26.48
2019-02-26T01:04:06.859Z,24.12
2019-02-26T01:06:36.031Z,22.20
2019-02-26T01:09:10.686Z,22.00
2019-02-26T01:11:39.206Z,19.32
2019-02-26T01:14:08.444Z,21.70
2019-02-26T01:16:39.387Z,18.40
2019-02-26T01:19:10.370Z,18.45
2019-02-26T01:21:39.510Z,19.67
2019-02-26T01:24:08.691Z,22.17
2019-02-26T01:26:37.944Z,18.85
2019-02-26T01:29:07.202Z,24.30
2019-02-26T01:31:36.540Z,22.93
2019-02-26T01:34:05.766Z,20.50
2019-02-26T01:36:35.048Z,16.80
2019-02-26T01:39:09.295Z,17.27
2019-02-26T01:41:41.398Z,20.43
2019-02-26T01:44:08.899Z,18.73
2019-02-26T01:46:38.905Z,14.20
2019-02-26T01:49:09.185Z,18.65
2019-02-26T01:51:38.406Z,21.73
2019-02-26T01:54:09.844Z,14.50
2019-02-26T01:56:38.564Z,19.62
2019-02-26T01:59:07.836Z,16.90
2019-02-26T02:01:40.014Z,22.07
2019-02-26T02:04:08.817Z,12.93
2019-02-26T02:06:39.262Z,16.12
2019-02-26T02:09:13.286Z,10.18
2019-02-26T02:11:40.892Z,9.98
2019-02-26T02:14:10.908Z,14.60
2019-02-26T02:16:41.033Z,13.90
2019-02-26T02:19:10.195Z,13.08
2019-02-26T02:21:39.362Z,10.60
2019-02-26T02:24:12.697Z,11.38
2019-02-26T02:26:42.944Z,14.38
2019-02-26T02:29:12.608Z,11.55
2019-02-26T02:31:41.332Z,13.05
2019-02-26T02:34:10.518Z,13.88
2019-02-26T02:36:39.846Z,12.37
2019-02-26T02:39:12.973Z,15.68
2019-02-26T02:41:42.209Z,15.50
2019-02-26T02:44:14.502Z,13.98
2019-02-26T02:46:44.370Z,12.03
2019-02-26T02:49:15.243Z,9.35
2019-02-26T02:51:44.043Z,8.70
2019-02-26T02:54:15.534Z,15.08
2019-02-26T02:56:44.412Z,8.73
2019-02-26T02:59:14.535Z,11.12
2019-02-26T03:01:45.789Z,7.87
2019-02-26T03:04:19.678Z,9.10
2019-02-26T03:06:46.636Z,10.82
2019-02-26T03:09:17.721Z,9.75
2019-02-26T03:11:49.309Z,5.95
2019-02-26T03:14:18.698Z,6.47
2019-02-26T03:16:50.843Z,7.20
2019-02-26T03:19:19.125Z,13.68
2019-02-26T03:21:49.636Z,11.75
2019-02-26T03:24:19.269Z,10.13
2019-02-26T03:26:48.520Z,12.75
2019-02-26T03:29:17.676Z,11.15
2019-02-26T03:31:54.704Z,11.50
2019-02-26T03:34:21.833Z,20.23
2019-02-26T03:36:48.704Z,14.35
2019-02-26T03:39:17.891Z,14.73
2019-02-26T03:41:48.649Z,19.57
2019-02-26T03:44:18.110Z,14.40
2019-02-26T03:46:47.374Z,15.08
2019-02-26T03:49:16.541Z,11.30
2019-02-26T03:51:45.774Z,21.45
2019-02-26T03:54:14.972Z,18.27
2019-02-26T03:56:44.487Z,30.55
2019-02-26T03:59:13.739Z,14.83
2019-02-26T04:01:43.073Z,15.32
2019-02-26T04:04:12.238Z,24.92
2019-02-26T04:06:43.834Z,11.55
2019-02-26T04:09:14.489Z,15.72
2019-02-26T04:11:46.989Z,11.20
2019-02-26T04:14:15.364Z,18.90
2019-02-26T04:16:45.060Z,10.23
2019-02-26T04:19:14.293Z,9.48
2019-02-26T04:22:21.487Z,13.40
2019-02-26T04:24:52.311Z,13.90
2019-02-26T04:28:08.097Z,13.50
2019-02-26T04:31:13.039Z,8.60
2019-02-26T04:34:05.091Z,7.58
2019-02-26T04:37:30.698Z,6.08
2019-02-26T04:40:23.618Z,5.15
2019-02-26T04:43:41.684Z,7.92
2019-02-26T04:46:48.746Z,7.95
2019-02-26T04:49:18.215Z,8.35
2019-02-26T04:51:50.292Z,13.00
2019-02-26T04:54:23.974Z,5.25
2019-02-26T04:56:50.978Z,4.85
2019-02-26T04:59:20.624Z,14.03
2019-02-26T05:01:52.343Z,10.25
2019-02-26T05:04:20.796Z,5.47
2019-02-26T05:06:50.040Z,5.40
2019-02-26T05:09:19.391Z,6.55
2019-02-26T05:11:48.551Z,9.53
2019-02-26T05:14:21.434Z,4.30
2019-02-26T05:16:48.716Z,3.45
2019-02-26T05:19:21.240Z,7.55
2019-02-26T05:21:48.856Z,7.20
2019-02-26T05:24:21.818Z,4.67
2019-02-26T05:26:50.633Z,3.35
2019-02-26T05:29:19.956Z,6.58
2019-02-26T05:31:49.243Z,11.60
2019-02-26T05:34:20.724Z,4.10
2019-02-26T05:36:49.561Z,4.00
2019-02-26T05:39:21.067Z,2.95
2019-02-26T05:41:52.294Z,3.65
2019-02-26T05:44:20.589Z,7.25
2019-02-26T05:46:50.854Z,19.37
2019-02-26T05:49:20.906Z,9.90
2019-02-26T05:51:50.211Z,13.35
2019-02-26T05:54:21.610Z,9.80
2019-02-26T05:56:50.442Z,4.78
2019-02-26T05:59:21.704Z,4.97
2019-02-26T06:01:54.722Z,5.08
2019-02-26T06:04:21.557Z,5.47
2019-02-26T06:06:53.161Z,3.47
2019-02-26T06:09:23.530Z,7.35
2019-02-26T06:11:52.729Z,2.87
2019-02-26T06:14:22.007Z,5.12
2019-02-26T06:16:53.253Z,4.08
2019-02-26T06:19:42.240Z,6.78
2019-02-26T06:22:14.520Z,3.83
2019-02-26T06:24:42.278Z,3.52
2019-02-26T06:27:13.775Z,7.15
2019-02-26T06:29:42.494Z,3.35
2019-02-26T06:32:13.742Z,7.03
2019-02-26T06:34:42.931Z,7.95
2019-02-26T06:37:19.879Z,4.60
2019-02-26T06:39:52.669Z,4.10
2019-02-26T06:42:20.247Z,7.08
2019-02-26T06:44:51.238Z,7.92
2019-02-26T06:47:21.137Z,5.20
2019-02-26T06:49:52.746Z,6.22
2019-02-26T06:52:22.254Z,3.15
2019-02-26T06:54:55.618Z,4.17
2019-02-26T06:57:22.400Z,4.53
2019-02-26T06:59:53.647Z,5.58
2019-02-26T07:02:22.621Z,7.35
2019-02-26T07:04:51.976Z,12.18
2019-02-26T07:07:21.266Z,10.75
2019-02-26T07:09:50.512Z,13.18
2019-02-26T07:12:21.714Z,5.22
2019-02-26T07:14:52.669Z,3.30
2019-02-26T07:17:21.640Z,8.08
2019-02-26T07:19:53.074Z,10.38
2019-02-26T07:22:21.815Z,14.65
2019-02-26T07:24:51.937Z,34.60
2019-02-26T07:27:22.399Z,5.00
2019-02-26T07:29:52.483Z,4.22
2019-02-26T07:32:22.897Z,5.40
2019-02-26T07:34:52.820Z,9.10
2019-02-26T07:37:22.142Z,4.15
2019-02-26T07:39:51.633Z,5.22
2019-02-26T07:42:21.139Z,3.60
2019-02-26T07:44:50.446Z,5.03
2019-02-26T07:47:20.031Z,9.50
2019-02-26T07:49:50.664Z,5.72
2019-02-26T07:52:21.586Z,4.30
2019-02-26T07:54:51.896Z,5.30
2019-02-26T07:57:22.951Z,4.25
2019-02-26T07:59:52.458Z,6.22
2019-02-26T08:02:21.714Z,12.45
2019-02-26T08:04:50.962Z,10.10
2019-02-26T08:07:21.515Z,5.22
2019-02-26T08:09:51.417Z,3.85
2019-02-26T08:12:20.597Z,3.60
2019-02-26T08:14:50.189Z,8.33
2019-02-26T08:17:19.913Z,4.22
2019-02-26T08:19:49.420Z,13.83
2019-02-26T08:22:18.869Z,3.92
2019-02-26T08:24:50.309Z,7.08
2019-02-26T08:27:19.000Z,6.87
2019-02-26T08:29:49.448Z,8.48
2019-02-26T08:32:21.046Z,7.20
2019-02-26T08:34:50.433Z,4.83
2019-02-26T08:37:19.773Z,6.45
2019-02-26T08:39:49.023Z,9.38
2019-02-26T08:42:18.361Z,13.15
2019-02-26T08:44:48.653Z,8.58
2019-02-26T08:47:20.646Z,6.28
2019-02-26T08:49:49.561Z,12.75
2019-02-26T08:52:19.917Z,8.85
2019-02-26T08:54:49.897Z,14.80
2019-02-26T08:57:19.217Z,7.33
2019-02-26T08:59:49.758Z,9.65
2019-02-26T09:02:19.480Z,5.83
2019-02-26T09:04:48.710Z,20.27
2019-02-26T09:07:19.538Z,6.62
2019-02-26T09:09:50.119Z,8.88
2019-02-26T09:12:20.593Z,12.30
2019-02-26T09:14:50.840Z,10.75
2019-02-26T09:17:23.146Z,6.83
2019-02-26T09:19:56.082Z,7.67
2019-02-26T09:22:23.591Z,11.35
2019-02-26T09:24:54.486Z,9.35
2019-02-26T09:27:24.822Z,5.78
2019-02-26T09:29:54.940Z,14.60
2019-02-26T09:32:24.199Z,6.00
2019-02-26T09:34:54.473Z,10.95
2019-02-26T09:37:24.290Z,9.63
2019-02-26T09:39:54.274Z,5.40
2019-02-26T09:42:25.581Z,5.10
2019-02-26T09:44:57.596Z,10.18
2019-02-26T09:47:31.546Z,6.65
2019-02-26T09:50:00.412Z,5.78
2019-02-26T09:52:30.343Z,8.30
2019-02-26T09:55:00.712Z,5.67
2019-02-26T09:57:29.919Z,7.62
2019-02-26T10:00:00.247Z,9.88
2019-02-26T10:02:30.076Z,5.17
2019-02-26T10:04:59.425Z,6.95
2019-02-26T10:07:30.712Z,7.22
2019-02-26T10:10:00.459Z,6.40
2019-02-26T10:12:32.168Z,12.20
2019-02-26T10:15:02.468Z,4.87
2019-02-26T10:17:34.718Z,5.90
2019-02-26T10:20:06.736Z,4.05
2019-02-26T10:22:36.170Z,8.43
2019-02-26T10:25:06.663Z,6.10
2019-02-26T10:27:36.655Z,3.97
2019-02-26T10:30:11.272Z,9.70
2019-02-26T10:32:39.686Z,3.63
2019-02-26T10:35:14.031Z,4.10
2019-02-26T10:37:44.364Z,2.57
2019-02-26T10:40:14.474Z,2.63
2019-02-26T10:42:46.221Z,5.30
2019-02-26T10:45:17.377Z,3.03
2019-02-26T10:47:48.826Z,3.33
2019-02-26T10:50:20.400Z,3.53
2019-02-26T10:52:49.446Z,2.63
2019-02-26T10:55:21.868Z,3.63
2019-02-26T10:57:49.619Z,2.67
2019-02-26T11:00:22.576Z,3.50
2019-02-26T11:02:54.121Z,2.80
2019-02-26T11:05:26.266Z,2.10
2019-02-26T11:07:55.761Z,2.43
2019-02-26T11:10:25.682Z,2.50
2019-02-26T11:12:58.551Z,2.30
2019-02-26T11:15:26.838Z,2.93
2019-02-26T11:17:56.672Z,2.97
2019-02-26T11:20:30.049Z,2.33
2019-02-26T11:22:56.924Z,2.63
2019-02-26T11:25:27.429Z,3.90
2019-02-26T11:27:57.107Z,3.50
2019-02-26T11:30:29.512Z,3.47
2019-02-26T11:33:02.015Z,2.30
2019-02-26T11:35:28.423Z,2.40
2019-02-26T11:37:58.219Z,3.30
2019-02-26T11:40:30.343Z,2.50
2019-02-26T11:43:00.064Z,3.53
2019-02-26T11:45:29.857Z,3.50
2019-02-26T11:48:00.994Z,3.03
2019-02-26T11:50:30.116Z,2.17
2019-02-26T11:52:59.639Z,2.70
2019-02-26T11:55:31.777Z,2.80
2019-02-26T11:57:59.941Z,8.20
2019-02-26T12:00:45.477Z,3.60
2019-02-26T12:03:14.759Z,3.53
2019-02-26T12:05:44.013Z,3.23
2019-02-26T12:08:16.310Z,2.67
2019-02-26T12:10:44.289Z,2.10
2019-02-26T12:13:14.660Z,3.10
2019-02-26T12:15:44.446Z,4.20
2019-02-26T12:18:15.430Z,3.57
2019-02-26T12:20:46.601Z,3.60
2019-02-26T12:23:16.169Z,3.13
2019-02-26T12:25:47.196Z,2.63
2019-02-26T12:28:17.427Z,3.40
2019-02-26T12:30:46.864Z,3.30
2019-02-26T12:33:16.186Z,3.57
2019-02-26T12:35:45.454Z,3.73
2019-02-26T12:38:18.850Z,3.17
2019-02-26T12:40:47.177Z,2.20
2019-02-26T12:43:19.120Z,2.40
2019-02-26T12:45:47.503Z,2.90
2019-02-26T12:48:19.643Z,2.63
2019-02-26T12:50:47.711Z,2.50
2019-02-26T12:53:17.997Z,2.40
2019-02-26T12:55:47.878Z,2.50
2019-02-26T12:58:20.146Z,2.63
2019-02-26T13:00:48.059Z,2.43
2019-02-26T13:03:19.798Z,2.17
2019-02-26T13:05:49.156Z,2.17
2019-02-26T13:08:20.549Z,2.70
2019-02-26T13:10:55.582Z,3.30
2019-02-26T13:13:21.580Z,2.57
2019-02-26T13:15:51.261Z,3.73
2019-02-26T13:18:20.499Z,2.50
2019-02-26T13:20:56.742Z,2.73
2019-02-26T13:23:21.805Z,3.53
2019-02-26T13:25:51.345Z,2.50
2019-02-26T13:28:20.582Z,2.70
2019-02-26T13:30:50.232Z,3.17
2019-02-26T13:33:26.402Z,3.60
2019-02-26T13:35:56.330Z,2.27
2019-02-26T13:38:24.882Z,2.63
2019-02-26T13:40:52.437Z,3.00
2019-02-26T13:43:21.688Z,2.47
2019-02-26T13:45:51.048Z,2.80
2019-02-26T13:48:21.398Z,2.67
2019-02-26T13:50:50.639Z,3.87
2019-02-26T13:53:19.905Z,2.23
2019-02-26T13:55:49.083Z,2.60
2019-02-26T13:58:18.325Z,3.03
2019-02-26T14:00:48.043Z,5.10
2019-02-26T14:03:17.643Z,2.50
2019-02-26T14:05:46.963Z,2.73
2019-02-26T14:08:16.247Z,3.00
2019-02-26T14:10:45.511Z,1.90
2019-02-26T14:13:14.823Z,2.17
2019-02-26T14:15:44.174Z,2.43
2019-02-26T14:18:13.477Z,4.20
2019-02-26T14:20:42.983Z,2.40
2019-02-26T14:23:12.252Z,1.93
2019-02-26T14:25:41.436Z,2.60
2019-02-26T14:28:10.693Z,2.10
2019-02-26T14:30:40.035Z,2.30
2019-02-26T14:33:09.204Z,3.03
2019-02-26T14:35:38.522Z,2.37
2019-02-26T14:38:08.342Z,2.00
2019-02-26T14:40:37.573Z,3.17
2019-02-26T14:43:06.924Z,2.93
2019-02-26T14:45:36.194Z,2.10
2019-02-26T14:48:05.382Z,1.90
2019-02-26T14:50:34.727Z,2.93
2019-02-26T14:53:04.003Z,3.03
2019-02-26T14:55:33.167Z,2.53
2019-02-26T14:58:02.487Z,2.97
2019-02-26T15:00:32.018Z,2.57
2019-02-26T15:03:01.265Z,2.60
2019-02-26T15:05:30.906Z,4.33
2019-02-26T15:08:00.250Z,4.33
2019-02-26T15:10:29.507Z,5.30
2019-02-26T15:12:59.027Z,4.73
2019-02-26T15:15:28.320Z,4.80
2019-02-26T15:17:57.628Z,4.40
2019-02-26T15:20:26.792Z,4.20
2019-02-26T15:22:56.069Z,5.00
2019-02-26T15:25:25.361Z,5.27
2019-02-26T15:28:04.289Z,5.47
2019-02-26T15:30:27.127Z,5.80
2019-02-26T15:32:56.459Z,4.83
2019-02-26T15:35:26.111Z,4.80
2019-02-26T15:37:55.389Z,4.80
2019-02-26T15:40:24.578Z,5.13
2019-02-26T15:42:56.283Z,4.80
2019-02-26T15:45:24.830Z,5.40
2019-02-26T15:47:54.087Z,5.00
2019-02-26T15:50:23.414Z,5.57
2019-02-26T15:52:53.645Z,4.40
2019-02-26T15:55:23.060Z,4.73
2019-02-26T15:57:52.304Z,4.47
2019-02-26T16:00:22.725Z,4.00
2019-02-26T16:02:52.364Z,4.33
2019-02-26T16:05:22.885Z,4.80
2019-02-26T16:07:52.603Z,3.30
2019-02-26T16:10:22.788Z,3.17
2019-02-26T16:12:52.131Z,3.50
2019-02-26T16:15:21.432Z,3.07
2019-02-26T16:17:50.684Z,4.80
2019-02-26T16:20:20.172Z,2.50
2019-02-26T16:22:49.853Z,3.30
2019-02-26T16:25:19.025Z,3.00
2019-02-26T16:27:48.350Z,2.37
2019-02-26T16:30:21.442Z,2.10
2019-02-26T16:32:50.758Z,3.00
2019-02-26T16:35:19.957Z,2.17
2019-02-26T16:37:49.301Z,3.10
2019-02-26T16:40:18.861Z,2.93
2019-02-26T16:42:48.554Z,2.80
2019-02-26T16:45:19.634Z,2.33
2019-02-26T16:47:49.438Z,2.07
2019-02-26T16:50:20.597Z,2.43
2019-02-26T16:52:50.112Z,2.43
2019-02-26T16:55:20.154Z,2.70
2019-02-26T16:57:49.793Z,2.97
2019-02-26T17:00:20.659Z,7.83
2019-02-26T17:02:49.986Z,3.07
2019-02-26T17:05:19.314Z,3.00
2019-02-26T17:07:48.684Z,3.00
2019-02-26T17:10:18.411Z,3.30
2019-02-26T17:12:54.085Z,3.00
2019-02-26T17:15:26.996Z,2.23
2019-02-26T17:17:56.402Z,3.37
2019-02-26T17:20:26.459Z,3.63
2019-02-26T17:22:56.015Z,5.83
2019-02-26T17:25:28.647Z,3.83
2019-02-26T17:27:56.795Z,7.30
2019-02-26T17:30:26.160Z,3.60
2019-02-26T17:32:55.504Z,3.83
2019-02-26T17:35:28.703Z,2.53
2019-02-26T17:37:55.763Z,3.33
2019-02-26T17:40:25.052Z,3.80
2019-02-26T17:42:54.538Z,3.20
2019-02-26T17:45:23.850Z,2.90
2019-02-26T17:47:56.528Z,2.67
2019-02-26T17:50:27.044Z,3.30
2019-02-26T17:52:56.461Z,3.43
2019-02-26T17:55:26.134Z,3.53
2019-02-26T17:57:55.528Z,5.13
2019-02-26T18:00:25.439Z,2.83
2019-02-26T18:02:54.785Z,5.93
2019-02-26T18:05:24.351Z,4.07
2019-02-26T18:07:53.621Z,3.00
2019-02-26T18:10:22.996Z,4.63
2019-02-26T18:12:53.938Z,3.50
2019-02-26T18:15:23.271Z,6.63
2019-02-26T18:17:52.600Z,5.37
2019-02-26T18:20:21.986Z,4.10
2019-02-26T18:22:51.247Z,3.23
2019-02-26T18:25:20.433Z,5.90
2019-02-26T18:27:49.713Z,3.63
2019-02-26T18:30:20.877Z,4.40
2019-02-26T18:32:53.161Z,4.93
2019-02-26T18:35:21.252Z,3.70
2019-02-26T18:37:50.633Z,2.47
2019-02-26T18:40:19.939Z,2.50
2019-02-26T18:42:49.445Z,4.13
2019-02-26T18:45:20.962Z,3.73
2019-02-26T18:47:50.227Z,3.70
2019-02-26T18:50:19.636Z,5.23
2019-02-26T18:52:49.047Z,3.47
2019-02-26T18:55:18.989Z,5.17
2019-02-26T18:57:48.491Z,7.80
2019-02-26T19:00:25.680Z,3.77
2019-02-26T19:02:53.819Z,3.30
2019-02-26T19:05:23.774Z,5.10
2019-02-26T19:07:53.272Z,4.00
2019-02-26T19:10:22.727Z,4.00
2019-02-26T19:12:52.092Z,3.30
2019-02-26T19:15:21.312Z,3.53
2019-02-26T19:17:51.951Z,2.83
2019-02-26T19:20:23.743Z,2.25
2019-02-26T19:22:53.024Z,5.20
2019-02-26T19:25:22.428Z,9.68
2019-02-26T19:27:53.079Z,6.97
2019-02-26T19:30:23.297Z,14.53
2019-02-26T19:32:53.110Z,7.20
2019-02-26T19:35:22.567Z,14.70
2019-02-26T19:37:55.224Z,25.90
2019-02-26T19:40:31.140Z,17.25
2019-02-26T19:43:00.393Z,16.30
2019-02-26T19:45:29.722Z,19.40
2019-02-26T19:47:59.066Z,14.90
2019-02-26T19:50:28.393Z,21.73
2019-02-26T19:53:02.164Z,16.27
2019-02-26T19:55:31.650Z,11.63
2019-02-26T19:58:03.391Z,7.95
2019-02-26T20:00:31.934Z,12.75
2019-02-26T20:03:04.869Z,7.17
2019-02-26T20:05:32.368Z,18.60
2019-02-26T20:08:04.826Z,17.17
2019-02-26T20:10:33.132Z,8.65
2019-02-26T20:13:04.011Z,18.07
2019-02-26T20:15:33.805Z,5.95
2019-02-26T20:18:03.172Z,5.37
2019-02-26T20:20:40.588Z,7.78
2019-02-26T20:23:06.050Z,15.48
2019-02-26T20:25:34.573Z,5.00
2019-02-26T20:28:05.557Z,6.47
2019-02-26T20:30:35.093Z,3.58
2019-02-26T20:33:04.834Z,2.90
2019-02-26T20:35:34.271Z,4.10
2019-02-26T20:38:03.740Z,5.95
2019-02-26T20:40:33.110Z,2.42
2019-02-26T20:43:05.176Z,5.33
2019-02-26T20:45:33.536Z,6.78
2019-02-26T20:48:04.201Z,4.42
2019-02-26T20:50:33.974Z,3.87
2019-02-26T20:53:05.651Z,5.60
2019-02-26T20:55:34.381Z,4.92
2019-02-26T20:58:03.627Z,4.22
2019-02-26T21:00:32.893Z,5.80
2019-02-26T21:03:02.484Z,4.10
2019-02-26T21:05:31.788Z,7.12
2019-02-26T21:08:01.128Z,6.15
2019-02-26T21:10:30.505Z,6.97
2019-02-26T21:13:01.834Z,7.83
2019-02-26T21:15:30.642Z,4.97
2019-02-26T21:17:59.859Z,6.47
2019-02-26T21:20:29.120Z,4.95
2019-02-26T21:22:58.448Z,8.30
2019-02-26T21:25:27.732Z,3.45
2019-02-26T21:28:00.470Z,5.28
2019-02-26T21:30:28.216Z,4.33
2019-02-26T21:32:58.614Z,5.00
2019-02-26T21:35:28.238Z,5.45
2019-02-26T21:37:57.491Z,11.68
2019-02-26T21:40:26.803Z,4.42
2019-02-26T21:42:56.048Z,5.45
2019-02-26T21:45:25.300Z,4.42
2019-02-26T21:47:54.499Z,6.12
2019-02-26T21:50:23.758Z,4.55
2019-02-26T21:53:00.246Z,6.72
2019-02-26T21:55:23.999Z,8.08
2019-02-26T21:57:54.816Z,6.08
2019-02-26T22:00:25.999Z,12.03
2019-02-26T22:02:55.287Z,5.37
2019-02-26T22:05:24.563Z,5.85
2019-02-26T22:07:53.913Z,4.90
2019-02-26T22:10:23.359Z,7.78
2019-02-26T22:12:56.598Z,15.58
2019-02-26T22:15:23.667Z,6.37
2019-02-26T22:17:53.009Z,6.45
2019-02-26T22:20:35.497Z,5.60
2019-02-26T22:22:53.309Z,9.68
2019-02-26T22:25:22.624Z,9.30
2019-02-26T22:27:51.927Z,4.55
2019-02-26T22:30:22.142Z,6.03
2019-02-26T22:32:52.312Z,5.20
2019-02-26T22:35:25.607Z,10.60
2019-02-26T22:37:52.688Z,6.97
2019-02-26T22:40:22.836Z,6.15
2019-02-26T22:42:52.203Z,5.83
2019-02-26T22:45:22.249Z,5.53
2019-02-26T22:47:51.730Z,5.00
2019-02-26T22:50:21.094Z,10.98
2019-02-26T22:52:50.300Z,4.12
2019-02-26T22:55:19.583Z,12.82
2019-02-26T22:57:48.849Z,6.10
2019-02-26T23:03:46.562Z,5.10
2019-02-26T23:06:16.677Z,6.58
2019-02-26T23:08:46.320Z,4.00
2019-02-26T23:11:16.497Z,7.60
2019-02-26T23:13:45.785Z,9.90
2019-02-26T23:16:18.005Z,3.17
2019-02-26T23:18:46.567Z,18.10
2019-02-26T23:21:16.275Z,7.08
2019-02-26T23:23:45.895Z,7.78
2019-02-26T23:26:15.246Z,4.28
2019-02-26T23:28:44.724Z,4.53
2019-02-26T23:31:14.524Z,9.23
2019-02-26T23:33:47.886Z,6.58
2019-02-26T23:36:15.031Z,9.40
2019-02-26T23:38:44.732Z,5.03
2019-02-26T23:41:14.218Z,6.33
2019-02-26T23:43:45.419Z,8.75
2019-02-26T23:46:14.755Z,6.30
2019-02-26T23:48:44.086Z,4.33
2019-02-26T23:51:13.363Z,2.85
2019-02-26T23:53:42.591Z,6.40
2019-02-26T23:56:11.855Z,5.92
2019-02-26T23:58:41.077Z,4.53
